createdAt,value
2023-01-26T00:01:38.733Z,20.70
2023-01-26T00:04:08.967Z,19.50
2023-01-26T00:06:39.429Z,21.40
2023-01-26T00:09:17.382Z,18.67
2023-01-26T00:11:47.685Z,22.60
2023-01-26T00:14:19.479Z,21.90
2023-01-26T00:16:49.938Z,21.63
2023-01-26T00:19:20.142Z,21.00
2023-01-26T00:21:50.305Z,17.77
2023-01-26T00:24:23.408Z,23.10
2023-01-26T00:26:53.579Z,21.77
2023-01-26T00:29:24.311Z,21.50
2023-01-26T00:31:54.669Z,19.60
2023-01-26T00:34:25.284Z,18.50
2023-01-26T00:36:55.626Z,22.80
2023-01-26T00:39:29.767Z,24.70
2023-01-26T00:42:10.101Z,24.03
2023-01-26T00:44:41.861Z,26.10
2023-01-26T00:47:15.440Z,24.07
2023-01-26T00:49:45.850Z,18.30
2023-01-26T00:52:16.761Z,25.87
2023-01-26T00:54:49.786Z,19.30
2023-01-26T00:57:19.927Z,22.80
2023-01-26T00:59:50.184Z,23.20
2023-01-26T01:02:20.831Z,19.30
2023-01-26T01:04:53.088Z,22.33
2023-01-26T01:07:23.253Z,23.37
2023-01-26T01:09:56.186Z,21.70
2023-01-26T01:12:26.875Z,19.57
2023-01-26T01:14:58.373Z,25.70
2023-01-26T01:17:29.070Z,20.50
2023-01-26T01:19:59.249Z,30.03
2023-01-26T01:22:29.468Z,21.70
2023-01-26T01:25:02.707Z,23.63
2023-01-26T01:27:32.869Z,24.20
2023-01-26T01:30:07.691Z,22.60
2023-01-26T01:32:40.206Z,25.70
2023-01-26T01:35:11.733Z,25.47
2023-01-26T01:37:42.057Z,21.60
2023-01-26T01:40:17.866Z,24.53
2023-01-26T01:42:51.747Z,20.80
2023-01-26T01:45:44.549Z,22.27
2023-01-26T01:48:25.365Z,19.97
2023-01-26T01:51:00.447Z,27.23
2023-01-26T01:53:36.587Z,19.90
2023-01-26T01:56:15.139Z,17.77
2023-01-26T01:58:47.188Z,19.57
2023-01-26T02:01:17.642Z,25.23
2023-01-26T02:03:54.209Z,26.53
2023-01-26T02:06:31.365Z,25.03
2023-01-26T02:09:03.065Z,24.57
2023-01-26T02:11:41.300Z,23.17
2023-01-26T02:14:16.286Z,27.67
2023-01-26T02:16:47.003Z,21.63
2023-01-26T02:19:25.432Z,23.60
2023-01-26T02:22:00.938Z,25.43
2023-01-26T02:24:39.285Z,21.67
2023-01-26T02:27:12.308Z,22.23
2023-01-26T02:29:42.715Z,22.10
2023-01-26T02:32:13.331Z,20.73
2023-01-26T02:34:43.403Z,21.17
2023-01-26T02:37:17.602Z,23.73
2023-01-26T02:39:55.959Z,20.33
2023-01-26T02:42:42.253Z,30.53
2023-01-26T02:45:16.078Z,24.13
2023-01-26T02:47:48.060Z,22.47
2023-01-26T02:50:16.746Z,23.63
2023-01-26T02:52:48.235Z,20.93
2023-01-26T02:55:28.858Z,23.40
2023-01-26T02:58:05.834Z,25.90
2023-01-26T03:00:42.202Z,22.87
2023-01-26T03:03:19.279Z,25.73
2023-01-26T03:05:49.935Z,30.03
2023-01-26T03:08:20.665Z,25.73
2023-01-26T03:10:50.838Z,30.57
2023-01-26T03:13:23.779Z,32.83
2023-01-26T03:15:55.780Z,24.27
2023-01-26T03:18:39.409Z,23.93
2023-01-26T03:21:28.075Z,30.00
2023-01-26T03:24:10.783Z,30.70
2023-01-26T03:26:55.079Z,28.00
2023-01-26T03:29:29.481Z,40.43
2023-01-26T03:32:02.741Z,22.90
2023-01-26T03:34:33.846Z,17.40
2023-01-26T03:37:04.231Z,23.20
2023-01-26T03:39:55.907Z,31.57
2023-01-26T03:42:39.476Z,20.30
2023-01-26T03:45:26.884Z,23.80
2023-01-26T03:48:18.621Z,23.37
2023-01-26T03:51:01.506Z,24.67
2023-01-26T03:53:44.041Z,25.03
2023-01-26T03:56:22.319Z,26.57
2023-01-26T03:58:57.452Z,34.17
2023-01-26T04:01:33.350Z,23.27
2023-01-26T04:04:16.759Z,24.50
2023-01-26T04:07:03.956Z,24.63
2023-01-26T04:09:35.315Z,29.30
2023-01-26T04:12:07.797Z,27.33
2023-01-26T04:14:55.496Z,27.17
2023-01-26T04:17:44.343Z,29.40
2023-01-26T04:20:27.641Z,26.83
2023-01-26T04:22:57.671Z,32.20
2023-01-26T04:25:27.789Z,23.70
2023-01-26T04:28:00.140Z,31.60
2023-01-26T04:30:30.272Z,30.93
2023-01-26T04:33:03.143Z,31.43
2023-01-26T04:35:33.573Z,34.63
2023-01-26T04:38:04.159Z,31.23
2023-01-26T04:40:34.923Z,29.57
2023-01-26T04:43:06.112Z,28.63
2023-01-26T04:45:37.308Z,24.97
2023-01-26T04:48:10.456Z,26.47
2023-01-26T04:50:40.544Z,36.63
2023-01-26T04:53:10.819Z,34.43
2023-01-26T04:55:40.950Z,28.50
2023-01-26T04:58:11.338Z,33.00
2023-01-26T05:00:41.738Z,24.63
2023-01-26T05:03:15.575Z,20.23
2023-01-26T05:05:45.763Z,24.83
2023-01-26T05:08:15.828Z,31.00
2023-01-26T05:10:46.348Z,36.60
2023-01-26T05:13:23.905Z,21.20
2023-01-26T05:16:14.088Z,24.90
2023-01-26T05:19:07.059Z,24.77
2023-01-26T05:21:55.741Z,26.27
2023-01-26T05:24:26.495Z,38.20
2023-01-26T05:27:26.635Z,22.07
2023-01-26T05:30:03.234Z,29.37
2023-01-26T05:32:37.141Z,25.20
2023-01-26T05:35:11.818Z,25.57
2023-01-26T05:37:42.806Z,28.23
2023-01-26T05:40:16.568Z,25.17
2023-01-26T05:42:47.958Z,29.00
2023-01-26T05:45:25.541Z,20.13
2023-01-26T05:47:59.498Z,22.80
2023-01-26T05:50:32.528Z,21.00
2023-01-26T05:53:17.442Z,22.63
2023-01-26T05:55:48.138Z,19.23
2023-01-26T05:58:18.673Z,21.57
2023-01-26T06:00:49.049Z,26.37
2023-01-26T06:03:26.534Z,23.23
2023-01-26T06:06:00.000Z,23.03
2023-01-26T06:08:40.272Z,21.43
2023-01-26T06:11:43.131Z,23.70
2023-01-26T06:14:24.899Z,20.90
2023-01-26T06:16:57.000Z,23.63
2023-01-26T06:19:28.286Z,23.53
2023-01-26T06:22:05.343Z,22.20
2023-01-26T06:24:35.604Z,24.87
2023-01-26T06:27:07.643Z,26.27
2023-01-26T06:29:38.288Z,21.00
2023-01-26T06:32:09.395Z,24.77
2023-01-26T06:34:39.640Z,25.00
2023-01-26T06:37:14.076Z,24.77
2023-01-26T06:39:44.634Z,25.13
2023-01-26T06:42:15.438Z,18.33
2023-01-26T06:44:46.811Z,26.43
2023-01-26T06:47:16.959Z,27.60
2023-01-26T06:49:48.268Z,25.63
2023-01-26T06:52:34.131Z,28.37
2023-01-26T06:55:20.264Z,25.60
2023-01-26T06:57:57.173Z,28.40
2023-01-26T07:00:45.864Z,24.23
2023-01-26T07:03:17.097Z,21.30
2023-01-26T07:05:47.390Z,21.57
2023-01-26T07:08:20.027Z,20.40
2023-01-26T07:10:50.302Z,23.23
2023-01-26T07:13:20.701Z,30.53
2023-01-26T07:15:50.854Z,16.67
2023-01-26T07:18:21.122Z,20.10
2023-01-26T07:20:51.313Z,19.47
2023-01-26T07:23:24.406Z,18.23
2023-01-26T07:25:55.048Z,25.20
2023-01-26T07:28:26.004Z,22.90
2023-01-26T07:30:56.512Z,26.87
2023-01-26T07:33:26.713Z,23.53
2023-01-26T07:35:57.473Z,19.37
2023-01-26T07:38:31.691Z,23.40
2023-01-26T07:41:02.146Z,25.67
2023-01-26T07:43:32.248Z,23.07
2023-01-26T07:46:02.482Z,20.27
2023-01-26T07:48:34.605Z,23.80
2023-01-26T07:51:09.362Z,22.77
2023-01-26T07:53:43.863Z,22.43
2023-01-26T07:56:19.351Z,31.53
2023-01-26T07:58:54.034Z,24.67
2023-01-26T08:01:25.563Z,22.53
2023-01-26T08:03:56.538Z,21.07
2023-01-26T08:06:26.949Z,26.63
2023-01-26T08:09:00.006Z,26.10
2023-01-26T08:11:30.179Z,20.07
2023-01-26T08:14:01.005Z,60.50
2023-01-26T08:16:32.188Z,35.47
2023-01-26T08:19:03.350Z,26.03
2023-01-26T08:21:33.865Z,27.97
2023-01-26T08:24:07.409Z,24.97
2023-01-26T08:26:37.691Z,16.43
2023-01-26T08:29:08.182Z,19.40
2023-01-26T08:31:39.088Z,26.30
2023-01-26T08:34:10.145Z,23.07
2023-01-26T08:36:41.693Z,18.10
2023-01-26T08:39:14.555Z,28.50
2023-01-26T08:41:47.282Z,22.57
2023-01-26T08:44:17.497Z,25.17
2023-01-26T08:46:47.772Z,18.40
2023-01-26T08:49:17.820Z,17.60
2023-01-26T08:51:48.075Z,22.77
2023-01-26T08:54:21.396Z,26.83
2023-01-26T08:56:51.484Z,11.90
2023-01-26T08:59:21.881Z,17.77
2023-01-26T09:01:52.493Z,22.60
2023-01-26T09:04:22.737Z,32.40
2023-01-26T09:06:52.896Z,20.37
2023-01-26T09:09:25.822Z,18.00
2023-01-26T09:11:59.018Z,19.50
2023-01-26T09:14:29.517Z,18.40
2023-01-26T09:16:59.660Z,17.37
2023-01-26T09:19:31.121Z,15.20
2023-01-26T09:22:01.477Z,13.83
2023-01-26T09:24:34.600Z,23.40
2023-01-26T09:27:04.705Z,17.23
2023-01-26T09:29:35.018Z,21.50
2023-01-26T09:32:05.395Z,21.63
2023-01-26T09:34:35.662Z,19.60
2023-01-26T09:37:06.168Z,25.50
2023-01-26T09:39:38.982Z,18.80
2023-01-26T09:42:40.899Z,19.63
2023-01-26T09:45:33.466Z,17.40
2023-01-26T09:48:25.589Z,17.90
2023-01-26T09:51:06.444Z,19.60
2023-01-26T09:53:49.642Z,13.77
2023-01-26T09:56:28.511Z,15.37
2023-01-26T09:59:03.874Z,13.50
2023-01-26T10:01:43.756Z,19.33
2023-01-26T10:04:24.521Z,17.00
2023-01-26T10:06:58.447Z,14.80
2023-01-26T10:09:51.692Z,15.80
2023-01-26T10:12:30.514Z,12.87
2023-01-26T10:15:08.669Z,17.50
2023-01-26T10:17:42.925Z,17.30
2023-01-26T10:20:30.650Z,15.87
2023-01-26T10:23:07.519Z,14.80
2023-01-26T10:25:44.419Z,16.90
2023-01-26T10:28:20.975Z,15.27
2023-01-26T10:30:52.233Z,15.53
2023-01-26T10:33:27.679Z,12.27
2023-01-26T10:35:58.681Z,15.97
2023-01-26T10:38:44.413Z,15.23
2023-01-26T10:41:31.143Z,17.77
2023-01-26T10:44:08.004Z,20.30
2023-01-26T10:46:41.311Z,23.00
2023-01-26T10:49:19.795Z,16.87
2023-01-26T10:52:11.093Z,19.83
2023-01-26T10:54:44.067Z,18.50
2023-01-26T10:57:24.258Z,21.80
2023-01-26T11:00:01.826Z,21.97
2023-01-26T11:02:34.212Z,20.80
2023-01-26T11:05:22.037Z,17.63
2023-01-26T11:07:59.015Z,17.90
2023-01-26T11:10:36.815Z,14.03
2023-01-26T11:13:19.548Z,19.23
2023-01-26T11:16:03.611Z,19.37
2023-01-26T11:18:49.653Z,22.93
2023-01-26T11:21:28.132Z,20.10
2023-01-26T11:24:07.735Z,20.50
2023-01-26T11:27:17.202Z,19.80
2023-01-26T11:30:17.202Z,22.63
2023-01-26T11:33:02.012Z,21.50
2023-01-26T11:35:42.527Z,16.07
2023-01-26T11:38:47.514Z,17.43
2023-01-26T11:41:32.222Z,17.60
2023-01-26T11:44:24.531Z,23.20
2023-01-26T11:47:21.152Z,23.07
2023-01-26T11:50:25.463Z,19.60
2023-01-26T11:53:20.822Z,21.87
2023-01-26T11:56:09.094Z,17.80
2023-01-26T11:58:49.490Z,18.70
2023-01-26T12:01:29.324Z,19.93
2023-01-26T12:04:00.741Z,22.00
2023-01-26T12:06:41.268Z,18.60
2023-01-26T12:09:23.002Z,18.33
2023-01-26T12:12:00.661Z,19.83
2023-01-26T12:14:39.463Z,16.43
2023-01-26T12:17:30.186Z,17.27
2023-01-26T12:20:14.577Z,19.67
2023-01-26T12:22:57.196Z,15.17
2023-01-26T12:25:38.183Z,19.17
2023-01-26T12:28:19.714Z,16.70
2023-01-26T12:31:01.246Z,14.77
2023-01-26T12:33:32.495Z,19.67
2023-01-26T12:36:28.524Z,17.73
2023-01-26T12:39:23.927Z,15.20
2023-01-26T12:42:20.524Z,14.17
2023-01-26T12:44:59.849Z,16.40
2023-01-26T12:47:37.226Z,12.40
2023-01-26T12:50:15.880Z,13.47
2023-01-26T12:52:53.109Z,18.83
2023-01-26T12:55:32.175Z,15.43
2023-01-26T12:58:06.772Z,17.93
2023-01-26T13:00:40.471Z,12.73
2023-01-26T13:03:25.301Z,17.80
2023-01-26T13:06:02.219Z,16.33
2023-01-26T13:09:04.365Z,23.07
2023-01-26T13:11:53.105Z,17.63
2023-01-26T13:15:03.949Z,21.50
2023-01-26T13:18:01.602Z,24.53
2023-01-26T13:20:48.402Z,22.13
2023-01-26T13:23:44.880Z,24.07
2023-01-26T13:26:26.607Z,26.43
2023-01-26T13:29:37.155Z,26.83
2023-01-26T13:32:59.865Z,27.80
2023-01-26T13:35:32.659Z,26.60
2023-01-26T13:38:17.918Z,25.10
2023-01-26T13:40:50.881Z,30.57
2023-01-26T13:43:34.216Z,30.53
2023-01-26T13:46:29.505Z,18.87
2023-01-26T13:49:00.080Z,19.53
2023-01-26T13:51:32.764Z,24.87
2023-01-26T13:54:07.896Z,22.10
2023-01-26T13:56:40.595Z,23.97
2023-01-26T13:59:15.382Z,23.07
2023-01-26T14:01:51.718Z,21.03
2023-01-26T14:04:24.664Z,27.47
2023-01-26T14:06:59.543Z,25.20
2023-01-26T14:09:33.326Z,24.33
2023-01-26T14:12:09.756Z,21.80
2023-01-26T14:14:41.429Z,29.00
2023-01-26T14:17:31.672Z,25.27
2023-01-26T14:20:19.653Z,26.07
2023-01-26T14:23:05.417Z,21.07
2023-01-26T14:25:39.924Z,17.63
2023-01-26T14:28:18.651Z,22.03
2023-01-26T14:31:08.401Z,17.77
2023-01-26T14:33:41.752Z,21.47
2023-01-26T14:36:19.718Z,23.57
2023-01-26T14:38:52.743Z,20.30
2023-01-26T14:41:28.685Z,30.20
2023-01-26T14:44:04.163Z,18.80
2023-01-26T14:46:43.806Z,21.97
2023-01-26T14:49:24.943Z,23.33
2023-01-26T14:52:01.296Z,22.10
2023-01-26T14:54:37.127Z,22.53
2023-01-26T14:57:10.165Z,21.03
2023-01-26T14:59:43.943Z,25.70
2023-01-26T15:02:20.417Z,26.93
2023-01-26T15:05:01.326Z,26.60
2023-01-26T15:07:40.885Z,21.87
2023-01-26T15:10:38.708Z,25.87
2023-01-26T15:13:24.991Z,26.93
2023-01-26T15:16:08.906Z,23.43
2023-01-26T15:18:39.032Z,24.83
2023-01-26T15:21:21.921Z,23.60
2023-01-26T15:23:58.134Z,28.87
2023-01-26T15:26:32.717Z,27.70
2023-01-26T15:29:06.148Z,26.23
2023-01-26T15:31:42.690Z,25.67
2023-01-26T15:34:35.176Z,24.00
2023-01-26T15:37:31.541Z,21.03
2023-01-26T15:40:01.982Z,24.10
2023-01-26T15:42:33.363Z,22.40
2023-01-26T15:45:03.512Z,21.77
2023-01-26T15:47:33.739Z,22.90
2023-01-26T15:50:04.459Z,19.23
2023-01-26T15:52:37.414Z,21.60
2023-01-26T15:55:24.446Z,25.77
2023-01-26T15:57:55.165Z,27.00
2023-01-26T16:00:25.822Z,29.27
2023-01-26T16:02:55.964Z,24.13
2023-01-26T16:05:27.997Z,22.43
2023-01-26T16:08:00.887Z,27.80
2023-01-26T16:10:31.252Z,30.97
2023-01-26T16:13:01.323Z,24.93
2023-01-26T16:15:43.034Z,21.53
2023-01-26T16:18:13.625Z,22.93
2023-01-26T16:20:47.019Z,21.70
2023-01-26T16:23:24.597Z,19.23
2023-01-26T16:25:55.450Z,19.63
2023-01-26T16:28:25.999Z,24.40
2023-01-26T16:30:56.252Z,26.77
2023-01-26T16:33:26.614Z,27.73
2023-01-26T16:35:57.385Z,19.10
2023-01-26T16:38:30.085Z,24.97
2023-01-26T16:41:00.748Z,24.07
2023-01-26T16:43:31.743Z,25.27
2023-01-26T16:46:01.888Z,20.70
2023-01-26T16:48:35.446Z,23.90
2023-01-26T16:51:20.239Z,16.63
2023-01-26T16:53:54.205Z,23.23
2023-01-26T16:56:26.032Z,24.17
2023-01-26T16:58:56.127Z,19.90
2023-01-26T17:01:30.560Z,27.23
2023-01-26T17:04:01.483Z,22.27
2023-01-26T17:06:32.253Z,20.80
2023-01-26T17:09:05.511Z,19.30
2023-01-26T17:11:35.981Z,19.37
2023-01-26T17:14:06.447Z,22.83
2023-01-26T17:16:37.181Z,22.80
2023-01-26T17:19:09.274Z,19.60
2023-01-26T17:21:39.588Z,21.47
2023-01-26T17:24:13.163Z,19.47
2023-01-26T17:26:43.158Z,20.60
2023-01-26T17:29:14.873Z,24.40
2023-01-26T17:31:45.371Z,28.83
2023-01-26T17:34:16.659Z,26.93
2023-01-26T17:36:46.822Z,22.80
2023-01-26T17:39:19.795Z,23.57
2023-01-26T17:41:49.768Z,22.17
2023-01-26T17:44:19.957Z,22.73
2023-01-26T17:46:50.180Z,19.57
2023-01-26T17:49:21.539Z,22.13
2023-01-26T17:51:51.849Z,18.60
2023-01-26T17:54:25.064Z,21.70
2023-01-26T17:56:55.638Z,21.53
2023-01-26T17:59:26.001Z,20.30
2023-01-26T18:01:56.698Z,23.17
2023-01-26T18:04:27.167Z,25.73
2023-01-26T18:06:57.629Z,24.07
2023-01-26T18:09:30.585Z,22.30
2023-01-26T18:12:01.032Z,18.47
2023-01-26T18:14:31.365Z,20.50
2023-01-26T18:17:01.909Z,21.30
2023-01-26T18:19:32.006Z,20.10
2023-01-26T18:22:02.208Z,18.07
2023-01-26T18:24:36.715Z,24.67
2023-01-26T18:27:07.716Z,26.93
2023-01-26T18:29:37.840Z,25.80
2023-01-26T18:32:09.227Z,25.67
2023-01-26T18:34:41.814Z,38.97
2023-01-26T18:37:12.750Z,27.67
2023-01-26T18:39:46.012Z,24.63
2023-01-26T18:42:16.206Z,28.13
2023-01-26T18:44:46.371Z,22.67
2023-01-26T18:47:16.518Z,20.80
2023-01-26T18:49:46.909Z,25.50
2023-01-26T18:52:17.023Z,26.80
2023-01-26T18:54:50.030Z,26.13
2023-01-26T18:57:20.487Z,36.53
2023-01-26T18:59:50.744Z,27.60
2023-01-26T19:02:21.180Z,26.40
2023-01-26T19:04:53.642Z,26.13
2023-01-26T19:07:24.799Z,31.73
2023-01-26T19:09:57.518Z,22.47
2023-01-26T19:12:27.569Z,27.47
2023-01-26T19:14:57.768Z,24.70
2023-01-26T19:17:28.074Z,25.60
2023-01-26T19:19:58.117Z,19.17
2023-01-26T19:22:28.808Z,30.10
2023-01-26T19:25:01.613Z,23.10
2023-01-26T19:27:34.068Z,23.00
2023-01-26T19:30:04.301Z,21.30
2023-01-26T19:32:34.419Z,28.27
2023-01-26T19:35:04.985Z,26.40
2023-01-26T19:37:35.091Z,26.27
2023-01-26T19:40:09.844Z,23.30
2023-01-26T19:42:42.337Z,22.10
2023-01-26T19:45:14.085Z,27.30
2023-01-26T19:47:44.706Z,27.67
2023-01-26T19:50:14.966Z,27.30
2023-01-26T19:52:45.233Z,26.47
2023-01-26T19:55:18.481Z,30.47
2023-01-26T19:57:48.587Z,22.60
2023-01-26T20:00:20.379Z,24.80
2023-01-26T20:02:50.815Z,25.50
2023-01-26T20:05:21.507Z,32.83
2023-01-26T20:07:51.817Z,28.07
2023-01-26T20:10:24.877Z,31.53
2023-01-26T20:12:57.337Z,33.03
2023-01-26T20:15:27.765Z,35.43
2023-01-26T20:17:58.128Z,27.20
2023-01-26T20:20:42.931Z,33.83
2023-01-26T20:23:13.205Z,31.60
2023-01-26T20:25:46.819Z,27.67
2023-01-26T20:28:17.823Z,26.37
2023-01-26T20:30:48.244Z,34.70
2023-01-26T20:33:18.297Z,25.53
2023-01-26T20:35:48.273Z,25.20
2023-01-26T20:38:18.696Z,28.67
2023-01-26T20:40:51.690Z,35.37
2023-01-26T20:43:21.959Z,21.20
2023-01-26T20:45:52.105Z,29.37
2023-01-26T20:48:22.169Z,29.80
2023-01-26T20:50:53.272Z,32.27
2023-01-26T20:53:23.264Z,35.27
2023-01-26T20:56:02.730Z,29.50
2023-01-26T20:58:33.111Z,35.67
2023-01-26T21:01:07.981Z,34.03
2023-01-26T21:03:39.923Z,38.03
2023-01-26T21:06:13.118Z,30.73
2023-01-26T21:08:44.085Z,33.50
2023-01-26T21:11:19.738Z,32.70
2023-01-26T21:13:49.720Z,35.00
2023-01-26T21:16:21.266Z,27.57
2023-01-26T21:18:51.719Z,33.03
2023-01-26T21:21:22.975Z,35.20
2023-01-26T21:23:54.321Z,51.43
2023-01-26T21:26:28.995Z,31.20
2023-01-26T21:29:02.433Z,34.40
2023-01-26T21:31:35.161Z,34.83
2023-01-26T21:34:05.359Z,37.33
2023-01-26T21:36:36.739Z,29.10
2023-01-26T21:39:10.856Z,35.77
2023-01-26T21:41:59.644Z,27.13
2023-01-26T21:44:32.359Z,25.87
2023-01-26T21:47:05.783Z,32.07
2023-01-26T21:49:36.030Z,25.30
2023-01-26T21:52:18.669Z,34.00
2023-01-26T21:54:48.862Z,29.70
2023-01-26T21:57:33.752Z,31.17
2023-01-26T22:00:03.960Z,31.20
2023-01-26T22:02:34.868Z,28.47
2023-01-26T22:05:05.117Z,31.23
2023-01-26T22:07:35.156Z,32.43
2023-01-26T22:10:06.270Z,28.67
2023-01-26T22:12:38.905Z,38.57
2023-01-26T22:15:11.807Z,36.63
2023-01-26T22:17:42.049Z,35.93
2023-01-26T22:20:15.043Z,31.13
2023-01-26T22:22:45.678Z,32.30
2023-01-26T22:25:16.228Z,34.67
2023-01-26T22:27:49.300Z,34.30
2023-01-26T22:30:20.213Z,38.13
2023-01-26T22:32:50.320Z,36.77
2023-01-26T22:35:20.492Z,60.27
2023-01-26T22:37:50.839Z,42.13
2023-01-26T22:40:22.243Z,45.23
2023-01-26T22:42:55.693Z,36.07
2023-01-26T22:45:26.041Z,36.23
2023-01-26T22:47:56.075Z,30.87
2023-01-26T22:50:26.143Z,38.53
2023-01-26T22:52:57.714Z,50.77
2023-01-26T22:55:27.840Z,38.03
2023-01-26T22:58:00.724Z,38.17
2023-01-26T23:00:31.081Z,35.50
2023-01-26T23:03:01.307Z,38.50
2023-01-26T23:05:33.685Z,39.57
2023-01-26T23:08:04.707Z,33.60
2023-01-26T23:10:35.144Z,37.00
2023-01-26T23:13:08.239Z,32.77
2023-01-26T23:15:40.572Z,44.07
2023-01-26T23:18:10.642Z,34.03
2023-01-26T23:20:40.786Z,38.87
2023-01-26T23:23:10.896Z,35.47
2023-01-26T23:25:56.080Z,33.70
2023-01-26T23:28:31.612Z,27.93
2023-01-26T23:31:03.005Z,38.63
2023-01-26T23:33:36.006Z,30.30
2023-01-26T23:36:08.441Z,33.60
2023-01-26T23:38:39.226Z,30.10
2023-01-26T23:41:09.731Z,32.37
2023-01-26T23:43:43.147Z,31.53
2023-01-26T23:46:15.098Z,40.73
2023-01-26T23:48:45.240Z,39.47
2023-01-26T23:51:16.055Z,32.00
2023-01-26T23:53:46.133Z,32.07
2023-01-26T23:56:19.277Z,37.00
2023-01-26T23:58:53.225Z,38.47
